Latest Coastal Weather Observations for Alva Beach

IDQ60701

Issued at 5:25 am EST Wednesday 3 September 2014 (issued every 10 minutes, with the page automatically refreshed every 10 minutes)

About coastal observations | Map of coastal stations | Coastal observations for QLD | Marine services | Other Formats
Station Details ID: 033295 Name: ALVA BEACH Lat: -19.46 Lon: 147.48 Height: 7.5 m
Data from the previous 72 hours. | See also: Recent months at Alva Beach
Date/Time
EST
Temp

°C
Wind Pressure Rain
since 9am
mm
Weather Cloud Vis
km
Sea
Height
m
Swell
Dir
 
Speed
knots
Gust
knots
hPa Trend Height
m
Period
s
Dir
03/05:00am 13.1 SW 3 6 1014.6 - 0.0 - - - - - - -
03/04:30am 14.4 SW 4 5 1014.4 - 0.0 - - - - - - -
03/04:00am 13.7 SSW 3 4 1014.4 - 0.0 - - - - - - -
03/03:30am 14.4 SW 4 5 1014.7 - 0.0 - - - - - - -
03/03:00am 14.9 SSW 4 5 1014.8 - 0.0 - - - - - - -
03/02:30am 15.4 S 4 5 1015.0 - 0.0 - - - - - - -
03/02:00am 15.9 S 4 5 1015.0 - 0.0 - - - - - - -
03/01:30am 16.2 S 4 6 1015.1 - 0.0 - - - - - - -
03/01:00am 17.1 WSW 3 5 1015.3 - 0.0 - - - - - - -
03/12:30am 18.2 W 3 5 1015.5 - 0.0 - - - - - - -
03/12:00am 19.2 WNW 4 6 1015.4 - 0.0 - - - - - - -
 
Date/Time
EST
Temp

°C
Wind Pressure Rain
since 9am
mm
Weather Cloud Vis
km
Sea
Height
m
Swell
Dir
 
Speed
knots
Gust
knots
hPa Trend Height
m
Period
s
Dir
02/11:30pm 19.5 WNW 4 7 1015.3 - 0.0 - - - - - - -
02/11:00pm 19.6 WNW 5 8 1015.3 - 0.0 - - - - - - -
02/10:30pm 19.4 NW 3 5 1015.4 - 0.0 - - - - - - -
02/10:00pm 19.4 NW 3 6 1015.3 - 0.0 - - - - - - -
02/09:30pm 19.6 NW 3 6 1015.1 - 0.0 - - - - - - -
02/09:00pm 20.1 NNW 6 9 1015.0 - 0.0 - - - - - - -
02/08:30pm 20.2 NNW 6 9 1014.9 - 0.0 - - - - - - -
02/08:00pm 20.4 NNW 6 10 1014.8 - 0.0 - - - - - - -
02/07:30pm 20.5 NNW 6 9 1014.6 - 0.0 - - - - - - -
02/07:00pm 20.5 NNW 6 9 1014.2 - 0.0 - - - - - - -
02/06:30pm 20.8 NNW 7 10 1013.9 - 0.0 - - - - - - -
02/06:00pm 21.0 NNW 7 12 1013.7 - 0.0 - - - - - - -
02/05:30pm 21.5 N 8 13 1013.6 - 0.0 - - - - - - -
02/05:00pm 21.8 N 9 13 1013.6 - 0.0 - - - - - - -
02/04:30pm 22.1 N 13 16 1013.6 - 0.0 - - - - - - -
02/04:00pm 22.9 N 13 16 1013.4 - 0.0 - - - - - - -
02/03:30pm 22.9 N 13 16 1013.4 - 0.0 - - - - - - -
02/03:00pm 23.0 N 10 14 1013.8 - 0.0 - - - - - - -
02/02:30pm 23.7 N 11 14 1014.0 - 0.0 - - - - - - -
02/02:00pm 24.0 N 11 13 1014.5 - 0.0 - - - - - - -
02/01:30pm 23.8 N 11 13 1014.9 - 0.0 - - - - - - -
02/01:00pm 23.7 NNE 9 11 1015.4 - 0.0 - - - - - - -
02/12:30pm 23.6 NNE 8 10 1015.7 - 0.0 - - - - - - -
02/12:00pm 24.1 NNE 9 10 1016.5 - 0.0 - - - - - - -
02/11:30am 23.7 NNE 7 9 1017.1 - 0.0 - - - - - - -
02/11:00am 22.9 NNE 6 8 1017.5 - 0.0 - - - - - - -
02/10:30am 22.9 NNE 6 7 1017.8 - 0.0 - - - - - - -
02/10:00am 22.5 NE 6 7 1018.3 - 0.0 - - - - - - -
02/09:30am 21.9 NNE 4 6 1018.6 - 0.0 - - - - - - -
02/09:00am 21.3 E 3 5 1018.6 - 0.0 - - - - - - -
02/08:30am 19.4 SSW 3 5 1018.5 - 0.0 - - - - - - -
02/08:00am 17.2 SW 4 6 1018.3 - 0.0 - - - - - - -
02/07:30am 15.5 SW 4 6 1018.3 - 0.0 - - - - - - -
02/07:00am 13.8 SW 5 6 1018.0 - 0.0 - - - - - - -
02/06:30am 13.3 SSW 5 6 1017.8 - 0.0 - - - - - - -
02/06:00am 13.6 SSW 5 6 1017.6 - 0.0 - - - - - - -
02/05:30am 13.5 SSW 5 6 1017.3 - 0.0 - - - - - - -
02/05:00am 13.4 S 5 6 1017.0 - 0.0 - - - - - - -
02/04:30am 13.4 SSW 5 6 1017.2 - 0.0 - - - - - - -
02/04:00am 13.4 SSW 5 6 1017.0 - 0.0 - - - - - - -
02/03:30am 13.9 SSE 4 5 1017.1 - 0.0 - - - - - - -
02/03:00am 14.0 S 5 6 1017.1 - 0.0 - - - - - - -
02/02:30am 14.1 S 5 6 1017.6 - 0.0 - - - - - - -
02/02:00am 14.9 S 5 6 1017.7 - 0.0 - - - - - - -
02/01:30am 15.9 ENE 5 7 1018.0 - 0.0 - - - - - - -
02/01:00am 19.1 NE 7 8 1018.2 - 0.0 - - - - - - -
02/12:30am 18.9 ENE 6 8 1018.2 - 0.0 - - - - - - -
02/12:00am 19.6 NE 7 9 1018.2 - 0.0 - - - - - - -
 
Date/Time
EST
Temp

°C
Wind Pressure Rain
since 9am
mm
Weather Cloud Vis
km
Sea
Height
m
Swell
Dir
 
Speed
knots
Gust
knots
hPa Trend Height
m
Period
s
Dir
01/11:30pm 19.8 NE 8 9 1018.2 - 0.0 - - - - - - -
01/11:00pm 20.1 NE 10 11 1018.0 - 0.0 - - - - - - -
01/10:30pm 19.9 NE 9 10 1018.0 - 0.0 - - - - - - -
01/10:00pm 19.9 NE 10 16 1017.9 - 0.0 - - - - - - -
01/09:30pm 20.1 ENE 9 11 1018.1 - 0.0 - - - - - - -
01/09:00pm 20.1 ENE 10 11 1018.2 - 0.0 - - - - - - -
01/08:30pm 20.4 ENE 9 11 1018.0 - 0.0 - - - - - - -
01/08:00pm 20.3 ENE 11 12 1017.7 - 0.0 - - - - - - -
01/07:30pm 20.4 ENE 11 13 1017.3 - 0.0 - - - - - - -
01/07:00pm 20.6 ENE 11 13 1017.0 - 0.0 - - - - - - -
01/06:30pm 20.6 ENE 11 13 1016.7 - 0.0 - - - - - - -
01/06:00pm 20.8 ENE 11 13 1016.4 - 0.0 - - - - - - -
01/05:30pm 21.2 ENE 11 13 1016.1 - 0.0 - - - - - - -
01/05:00pm 21.7 NE 11 13 1015.9 - 0.0 - - - - - - -
01/04:30pm 22.0 NE 11 13 1015.9 - 0.0 - - - - - - -
01/04:00pm 22.1 ENE 10 12 1015.8 - 0.0 - - - - - - -
01/03:30pm 22.4 ENE 9 11 1015.9 - 0.0 - - - - - - -
01/03:00pm 22.5 E 8 11 1016.2 - 0.0 - - - - - - -
01/02:30pm 22.4 E 8 10 1016.3 - 0.0 - - - - - - -
01/02:00pm 21.8 E 8 11 1016.4 - 0.0 - - - - - - -
01/01:30pm 22.2 E 8 10 1017.1 - 0.0 - - - - - - -
01/01:00pm 22.3 E 7 9 1017.7 - 0.0 - - - - - - -
01/12:30pm 22.3 E 6 8 1018.1 - 0.0 - - - - - - -
01/12:00pm 22.0 E 7 9 1018.3 - 0.0 - - - - - - -
01/11:30am 22.9 E 7 9 1018.9 - 0.0 - - - - - - -
01/11:00am 22.5 ESE 6 9 1019.2 - 0.0 - - - - - - -
01/10:30am 22.2 ESE 6 9 1019.4 - 0.0 - - - - - - -
01/10:00am 22.8 ESE 6 9 1019.4 - 0.0 - - - - - - -
01/09:30am 21.8 SE 6 10 1019.8 - 0.0 - - - - - - -
01/09:00am 21.4 SE 5 9 1019.2 - 0.0 - - - - - - -
01/08:30am 19.9 S 4 6 1019.1 - 0.0 - - - - - - -
01/08:00am 17.6 S 5 7 1018.6 - 0.0 - - - - - - -
01/07:30am 15.1 S 6 8 1018.6 - 0.0 - - - - - - -
01/07:00am 13.1 SSW 5 7 1018.0 - 0.0 - - - - - - -
01/06:30am 12.0 SSW 5 7 1017.7 - 0.0 - - - - - - -
01/06:00am 12.0 SSW 5 7 1017.4 - 0.0 - - - - - - -
01/05:30am 12.2 SSW 5 7 1017.2 - 0.0 - - - - - - -
01/05:00am 12.6 SSW 5 6 1016.9 - 0.0 - - - - - - -
01/04:30am 12.7 SSW 5 7 1016.9 - 0.0 - - - - - - -
01/04:00am 12.8 SSW 5 7 1016.9 - 0.0 - - - - - - -
01/03:30am 13.0 SSW 5 6 1016.9 - 0.0 - - - - - - -
01/03:00am 13.3 SSW 4 6 1016.9 - 0.0 - - - - - - -
01/02:30am 13.9 SSW 4 6 1017.0 - 0.0 - - - - - - -
01/02:00am 14.8 SSW 5 6 1017.4 - 0.0 - - - - - - -
01/01:30am 19.0 ENE 7 10 1017.4 - 0.0 - - - - - - -
01/01:00am 19.4 ENE 8 11 1017.6 - 0.0 - - - - - - -
01/12:30am 19.4 E 8 10 1017.7 - 0.0 - - - - - - -
01/12:00am 19.8 E 9 12 1017.7 - 0.0 - - - - - - -
 
Date/Time
EST
Temp

°C
Wind Pressure Rain
since 9am
mm
Weather Cloud Vis
km
Sea
Height
m
Swell
Dir
 
Speed
knots
Gust
knots
hPa Trend Height
m
Period
s
Dir
31/11:30pm 19.9 ENE 11 15 1017.8 - 0.0 - - - - - - -
31/11:00pm 19.9 ENE 13 17 1017.7 - 0.0 - - - - - - -
31/10:30pm 20.1 E 11 15 1017.8 - 0.0 - - - - - - -
31/10:00pm 20.0 ENE 12 15 1017.8 - 0.0 - - - - - - -
31/09:30pm 20.2 E 11 14 1017.8 - 0.0 - - - - - - -
31/09:00pm 20.0 E 11 14 1017.7 - 0.0 - - - - - - -
31/08:30pm 20.1 ENE 14 17 1017.5 - 0.0 - - - - - - -
31/08:00pm 20.1 ENE 14 18 1017.1 - 0.0 - - - - - - -
31/07:30pm 20.2 E 13 17 1016.9 - 0.0 - - - - - - -
31/07:00pm 20.2 E 13 17 1016.4 - 0.0 - - - - - - -
31/06:30pm 20.2 E 13 17 1016.0 - 0.0 - - - - - - -
31/06:00pm 20.5 E 13 17 1015.7 - 0.0 - - - - - - -
31/05:30pm 20.9 E 13 17 1015.4 - 0.0 - - - - - - -
31/05:00pm 21.3 ENE 15 18 1015.1 - 0.0 - - - - - - -
31/04:30pm 21.7 ENE 16 19 1014.7 - 0.0 - - - - - - -
31/04:00pm 22.1 ENE 16 19 1014.6 - 0.0 - - - - - - -
31/03:30pm 22.6 ENE 16 18 1014.5 - 0.0 - - - - - - -
31/03:00pm 23.2 E 12 16 1015.0 - 0.0 - - - - - - -
31/02:30pm 23.1 E 12 17 1015.2 - 0.0 - - - - - - -
31/02:00pm 23.2 E 12 16 1015.6 - 0.0 - - - - - - -
31/01:30pm 24.0 E 9 13 1016.0 - 0.0 - - - - - - -
31/01:00pm 23.7 ESE 7 10 1016.4 - 0.0 - - - - - - -
31/12:30pm 22.8 ESE 7 10 1017.0 - 0.0 - - - - - - -
31/12:00pm 22.8 E 6 10 1017.4 - 0.0 - - - - - - -
31/11:30am 22.5 ESE 6 9 1017.7 - 0.0 - - - - - - -
31/11:00am 22.6 ESE 6 9 1018.0 - 0.0 - - - - - - -
31/10:30am 22.3 ESE 5 7 1018.3 - 0.0 - - - - - - -
31/10:00am 21.4 ESE 7 10 1018.5 - 0.0 - - - - - - -
31/09:30am 21.1 ESE 7 10 1018.8 - 0.0 - - - - - - -
31/09:00am 20.9 ESE 7 9 1019.0 - 0.0 - - - - - - -
31/08:30am 20.0 SE 4 7 1018.8 - 0.0 - - - - - - -
31/08:00am 17.6 SSE 4 7 1018.7 - 0.0 - - - - - - -
31/07:30am 15.2 S 5 7 1018.4 - 0.0 - - - - - - -
31/07:00am 13.5 SSW 4 6 1018.2 - 0.0 - - - - - - -
31/06:30am 12.7 SSW 4 5 1017.8 - 0.0 - - - - - - -
31/06:00am 12.9 SSW 4 6 1017.3 - 0.0 - - - - - - -
31/05:30am 12.9 SSW 5 7 1017.0 - 0.0 - - - - - - -

Other Formats:

Comma delimited format used in spreadsheet applications
http://www.bom.gov.au/fwo/IDQ60701/IDQ60701.95296.axf

JavaScript Object Notation format (JSON) in row-major order
http://www.bom.gov.au/fwo/IDQ60701/IDQ60701.95296.json